sensor_id;sensor_type;location;lat;lon;timestamp;P1;durP1;ratioP1;P2;durP2;ratioP2
54171;SDS011;40076;52.354;4.970;2022-12-07T00:01:09;12.73;;;2.60;;
54171;SDS011;40076;52.354;4.970;2022-12-07T00:03:37;15.15;;;2.15;;
54171;SDS011;40076;52.354;4.970;2022-12-07T00:06:04;8.13;;;1.60;;
54171;SDS011;40076;52.354;4.970;2022-12-07T00:08:31;11.40;;;1.70;;
54171;SDS011;40076;52.354;4.970;2022-12-07T00:11:04;10.20;;;1.73;;
54171;SDS011;40076;52.354;4.970;2022-12-07T00:13:31;8.95;;;1.63;;
54171;SDS011;40076;52.354;4.970;2022-12-07T00:16:17;7.78;;;1.30;;
54171;SDS011;40076;52.354;4.970;2022-12-07T00:18:44;7.93;;;1.60;;
54171;SDS011;40076;52.354;4.970;2022-12-07T00:21:14;13.75;;;1.58;;
54171;SDS011;40076;52.354;4.970;2022-12-07T00:24:05;5.95;;;1.17;;
54171;SDS011;40076;52.354;4.970;2022-12-07T00:26:35;8.45;;;1.48;;
54171;SDS011;40076;52.354;4.970;2022-12-07T00:29:04;5.70;;;1.60;;
54171;SDS011;40076;52.354;4.970;2022-12-07T00:31:31;7.30;;;1.40;;
54171;SDS011;40076;52.354;4.970;2022-12-07T00:34:00;10.70;;;1.60;;
54171;SDS011;40076;52.354;4.970;2022-12-07T00:36:26;7.78;;;1.58;;
54171;SDS011;40076;52.354;4.970;2022-12-07T00:38:51;9.15;;;1.45;;
54171;SDS011;40076;52.354;4.970;2022-12-07T00:41:18;9.10;;;1.55;;
54171;SDS011;40076;52.354;4.970;2022-12-07T00:43:46;6.35;;;1.13;;
54171;SDS011;40076;52.354;4.970;2022-12-07T00:46:13;13.10;;;1.60;;
54171;SDS011;40076;52.354;4.970;2022-12-07T00:48:39;9.25;;;1.60;;
54171;SDS011;40076;52.354;4.970;2022-12-07T00:51:05;5.72;;;1.40;;
54171;SDS011;40076;52.354;4.970;2022-12-07T00:53:33;6.25;;;0.80;;
54171;SDS011;40076;52.354;4.970;2022-12-07T00:56:10;7.50;;;1.00;;
54171;SDS011;40076;52.354;4.970;2022-12-07T00:58:37;7.72;;;1.08;;
54171;SDS011;40076;52.354;4.970;2022-12-07T01:01:04;12.05;;;1.55;;
54171;SDS011;40076;52.354;4.970;2022-12-07T01:03:30;9.93;;;1.23;;
54171;SDS011;40076;52.354;4.970;2022-12-07T01:05:56;6.28;;;1.10;;
54171;SDS011;40076;52.354;4.970;2022-12-07T01:08:22;9.68;;;1.35;;
54171;SDS011;40076;52.354;4.970;2022-12-07T01:10:48;9.32;;;2.22;;
54171;SDS011;40076;52.354;4.970;2022-12-07T01:13:14;7.93;;;1.10;;
54171;SDS011;40076;52.354;4.970;2022-12-07T01:15:40;13.23;;;1.42;;
54171;SDS011;40076;52.354;4.970;2022-12-07T01:18:07;8.35;;;1.20;;
54171;SDS011;40076;52.354;4.970;2022-12-07T01:20:33;6.68;;;1.50;;
54171;SDS011;40076;52.354;4.970;2022-12-07T01:22:58;8.52;;;1.10;;
54171;SDS011;40076;52.354;4.970;2022-12-07T01:25:24;8.18;;;1.33;;
54171;SDS011;40076;52.354;4.970;2022-12-07T01:27:49;7.97;;;0.90;;
54171;SDS011;40076;52.354;4.970;2022-12-07T01:30:14;7.18;;;1.88;;
54171;SDS011;40076;52.354;4.970;2022-12-07T01:32:40;11.60;;;1.10;;
54171;SDS011;40076;52.354;4.970;2022-12-07T01:35:05;9.20;;;1.17;;
54171;SDS011;40076;52.354;4.970;2022-12-07T01:37:34;8.10;;;1.30;;
54171;SDS011;40076;52.354;4.970;2022-12-07T01:40:00;7.70;;;1.10;;
54171;SDS011;40076;52.354;4.970;2022-12-07T01:42:26;11.00;;;1.17;;
54171;SDS011;40076;52.354;4.970;2022-12-07T01:47:48;6.47;;;1.40;;
54171;SDS011;40076;52.354;4.970;2022-12-07T01:52:42;10.13;;;1.00;;
54171;SDS011;40076;52.354;4.970;2022-12-07T01:55:10;8.82;;;1.67;;
54171;SDS011;40076;52.354;4.970;2022-12-07T01:57:44;7.93;;;1.10;;
54171;SDS011;40076;52.354;4.970;2022-12-07T02:00:13;8.30;;;1.77;;
54171;SDS011;40076;52.354;4.970;2022-12-07T02:02:47;7.93;;;1.20;;
54171;SDS011;40076;52.354;4.970;2022-12-07T02:05:46;6.03;;;0.90;;
54171;SDS011;40076;52.354;4.970;2022-12-07T02:08:13;7.45;;;0.85;;
54171;SDS011;40076;52.354;4.970;2022-12-07T02:10:39;8.10;;;1.27;;
54171;SDS011;40076;52.354;4.970;2022-12-07T02:15:43;11.10;;;3.22;;
54171;SDS011;40076;52.354;4.970;2022-12-07T02:18:19;10.27;;;1.48;;
54171;SDS011;40076;52.354;4.970;2022-12-07T02:21:04;9.40;;;1.65;;
54171;SDS011;40076;52.354;4.970;2022-12-07T02:31:43;7.93;;;1.65;;
54171;SDS011;40076;52.354;4.970;2022-12-07T02:35:02;9.55;;;2.00;;
54171;SDS011;40076;52.354;4.970;2022-12-07T02:37:34;9.13;;;1.67;;
54171;SDS011;40076;52.354;4.970;2022-12-07T02:40:03;13.27;;;2.00;;
54171;SDS011;40076;52.354;4.970;2022-12-07T02:42:36;10.75;;;1.58;;
54171;SDS011;40076;52.354;4.970;2022-12-07T02:45:05;9.20;;;1.83;;
54171;SDS011;40076;52.354;4.970;2022-12-07T02:47:32;10.90;;;1.83;;
54171;SDS011;40076;52.354;4.970;2022-12-07T02:49:59;10.18;;;1.73;;
54171;SDS011;40076;52.354;4.970;2022-12-07T02:52:24;8.57;;;1.58;;
54171;SDS011;40076;52.354;4.970;2022-12-07T02:54:50;9.10;;;1.40;;
54171;SDS011;40076;52.354;4.970;2022-12-07T02:57:21;10.05;;;1.63;;
54171;SDS011;40076;52.354;4.970;2022-12-07T03:08:25;16.17;;;2.88;;
54171;SDS011;40076;52.354;4.970;2022-12-07T03:11:16;14.43;;;2.15;;
54171;SDS011;40076;52.354;4.970;2022-12-07T03:13:51;14.65;;;1.77;;
54171;SDS011;40076;52.354;4.970;2022-12-07T03:16:28;15.45;;;1.55;;
54171;SDS011;40076;52.354;4.970;2022-12-07T03:19:03;12.57;;;1.42;;
54171;SDS011;40076;52.354;4.970;2022-12-07T03:21:42;8.88;;;1.33;;
54171;SDS011;40076;52.354;4.970;2022-12-07T03:24:16;10.98;;;1.67;;
54171;SDS011;40076;52.354;4.970;2022-12-07T03:26:45;9.00;;;1.50;;
54171;SDS011;40076;52.354;4.970;2022-12-07T03:29:19;7.65;;;1.30;;
54171;SDS011;40076;52.354;4.970;2022-12-07T03:31:51;11.05;;;1.88;;
54171;SDS011;40076;52.354;4.970;2022-12-07T03:34:24;10.48;;;1.30;;
54171;SDS011;40076;52.354;4.970;2022-12-07T03:39:30;11.57;;;1.90;;
54171;SDS011;40076;52.354;4.970;2022-12-07T03:42:07;10.07;;;1.30;;
54171;SDS011;40076;52.354;4.970;2022-12-07T03:44:35;17.20;;;2.67;;
54171;SDS011;40076;52.354;4.970;2022-12-07T03:47:02;13.75;;;1.90;;
54171;SDS011;40076;52.354;4.970;2022-12-07T03:49:37;10.30;;;1.60;;
54171;SDS011;40076;52.354;4.970;2022-12-07T03:52:22;12.20;;;1.50;;
54171;SDS011;40076;52.354;4.970;2022-12-07T03:57:41;15.02;;;1.67;;
54171;SDS011;40076;52.354;4.970;2022-12-07T04:00:09;9.40;;;1.25;;
54171;SDS011;40076;52.354;4.970;2022-12-07T04:02:35;9.65;;;2.35;;
54171;SDS011;40076;52.354;4.970;2022-12-07T04:05:01;9.73;;;1.58;;
54171;SDS011;40076;52.354;4.970;2022-12-07T04:07:26;5.78;;;1.38;;
54171;SDS011;40076;52.354;4.970;2022-12-07T04:09:52;5.60;;;0.90;;
54171;SDS011;40076;52.354;4.970;2022-12-07T04:12:19;15.35;;;1.58;;
54171;SDS011;40076;52.354;4.970;2022-12-07T04:14:45;5.70;;;0.80;;
54171;SDS011;40076;52.354;4.970;2022-12-07T04:17:10;8.02;;;1.17;;
54171;SDS011;40076;52.354;4.970;2022-12-07T04:19:36;6.95;;;1.42;;
54171;SDS011;40076;52.354;4.970;2022-12-07T04:22:01;10.13;;;1.30;;
54171;SDS011;40076;52.354;4.970;2022-12-07T04:24:28;7.10;;;1.27;;
54171;SDS011;40076;52.354;4.970;2022-12-07T04:26:53;10.63;;;1.90;;
54171;SDS011;40076;52.354;4.970;2022-12-07T04:29:19;6.10;;;0.98;;
54171;SDS011;40076;52.354;4.970;2022-12-07T04:31:45;7.80;;;1.20;;
54171;SDS011;40076;52.354;4.970;2022-12-07T04:34:10;8.25;;;1.10;;
54171;SDS011;40076;52.354;4.970;2022-12-07T04:36:36;9.02;;;1.35;;
54171;SDS011;40076;52.354;4.970;2022-12-07T04:39:03;8.95;;;1.20;;
54171;SDS011;40076;52.354;4.970;2022-12-07T04:41:29;9.18;;;1.80;;
54171;SDS011;40076;52.354;4.970;2022-12-07T04:43:58;10.15;;;1.52;;
54171;SDS011;40076;52.354;4.970;2022-12-07T04:46:26;9.82;;;1.88;;
54171;SDS011;40076;52.354;4.970;2022-12-07T04:48:53;17.83;;;2.25;;
54171;SDS011;40076;52.354;4.970;2022-12-07T04:51:23;10.38;;;1.73;;
54171;SDS011;40076;52.354;4.970;2022-12-07T04:53:50;11.60;;;1.85;;
54171;SDS011;40076;52.354;4.970;2022-12-07T04:56:16;10.23;;;1.45;;
54171;SDS011;40076;52.354;4.970;2022-12-07T04:58:43;12.27;;;2.25;;
54171;SDS011;40076;52.354;4.970;2022-12-07T05:01:09;14.35;;;2.15;;
54171;SDS011;40076;52.354;4.970;2022-12-07T05:03:35;11.15;;;1.85;;
54171;SDS011;40076;52.354;4.970;2022-12-07T05:06:01;11.52;;;1.85;;
54171;SDS011;40076;52.354;4.970;2022-12-07T05:08:26;11.32;;;1.90;;
54171;SDS011;40076;52.354;4.970;2022-12-07T05:10:51;12.20;;;2.20;;
54171;SDS011;40076;52.354;4.970;2022-12-07T05:13:17;12.15;;;1.88;;
54171;SDS011;40076;52.354;4.970;2022-12-07T05:15:42;9.50;;;1.70;;
54171;SDS011;40076;52.354;4.970;2022-12-07T05:18:09;12.20;;;2.13;;
54171;SDS011;40076;52.354;4.970;2022-12-07T05:20:35;10.90;;;1.50;;
54171;SDS011;40076;52.354;4.970;2022-12-07T05:23:00;10.63;;;1.83;;
54171;SDS011;40076;52.354;4.970;2022-12-07T05:25:26;9.68;;;1.20;;
54171;SDS011;40076;52.354;4.970;2022-12-07T05:27:51;8.93;;;1.42;;
54171;SDS011;40076;52.354;4.970;2022-12-07T05:30:17;6.82;;;1.40;;
54171;SDS011;40076;52.354;4.970;2022-12-07T05:32:42;6.00;;;1.02;;
54171;SDS011;40076;52.354;4.970;2022-12-07T05:35:07;6.85;;;1.08;;
54171;SDS011;40076;52.354;4.970;2022-12-07T05:37:33;13.73;;;1.52;;
54171;SDS011;40076;52.354;4.970;2022-12-07T05:39:58;11.38;;;1.10;;
54171;SDS011;40076;52.354;4.970;2022-12-07T05:42:24;7.22;;;1.50;;
54171;SDS011;40076;52.354;4.970;2022-12-07T05:44:49;10.40;;;1.27;;
54171;SDS011;40076;52.354;4.970;2022-12-07T05:47:14;5.03;;;1.17;;
54171;SDS011;40076;52.354;4.970;2022-12-07T05:49:40;5.32;;;1.23;;
54171;SDS011;40076;52.354;4.970;2022-12-07T05:52:06;6.63;;;0.95;;
54171;SDS011;40076;52.354;4.970;2022-12-07T05:54:32;7.13;;;1.30;;
54171;SDS011;40076;52.354;4.970;2022-12-07T05:56:57;10.23;;;1.90;;
54171;SDS011;40076;52.354;4.970;2022-12-07T05:59:23;8.65;;;1.75;;
54171;SDS011;40076;52.354;4.970;2022-12-07T06:04:15;8.60;;;1.00;;
54171;SDS011;40076;52.354;4.970;2022-12-07T06:06:41;9.63;;;1.27;;
54171;SDS011;40076;52.354;4.970;2022-12-07T06:09:06;8.50;;;1.20;;
54171;SDS011;40076;52.354;4.970;2022-12-07T06:11:32;8.48;;;1.25;;
54171;SDS011;40076;52.354;4.970;2022-12-07T06:14:16;6.63;;;1.00;;
54171;SDS011;40076;52.354;4.970;2022-12-07T06:16:41;14.05;;;2.58;;
54171;SDS011;40076;52.354;4.970;2022-12-07T06:19:07;12.05;;;6.18;;
54171;SDS011;40076;52.354;4.970;2022-12-07T06:21:32;10.27;;;3.67;;
54171;SDS011;40076;52.354;4.970;2022-12-07T06:23:57;9.18;;;1.40;;
54171;SDS011;40076;52.354;4.970;2022-12-07T06:26:22;11.82;;;1.23;;
54171;SDS011;40076;52.354;4.970;2022-12-07T06:28:48;11.13;;;2.30;;
54171;SDS011;40076;52.354;4.970;2022-12-07T06:31:13;11.23;;;2.00;;
54171;SDS011;40076;52.354;4.970;2022-12-07T06:33:39;7.03;;;1.35;;
54171;SDS011;40076;52.354;4.970;2022-12-07T06:36:04;5.50;;;1.08;;
54171;SDS011;40076;52.354;4.970;2022-12-07T06:38:30;6.80;;;1.20;;
54171;SDS011;40076;52.354;4.970;2022-12-07T06:40:55;8.43;;;0.80;;
54171;SDS011;40076;52.354;4.970;2022-12-07T06:43:20;7.10;;;1.02;;
54171;SDS011;40076;52.354;4.970;2022-12-07T06:45:46;8.02;;;1.38;;
54171;SDS011;40076;52.354;4.970;2022-12-07T06:48:11;9.70;;;1.35;;
54171;SDS011;40076;52.354;4.970;2022-12-07T06:50:37;7.82;;;1.48;;
54171;SDS011;40076;52.354;4.970;2022-12-07T06:53:02;4.60;;;0.80;;
54171;SDS011;40076;52.354;4.970;2022-12-07T06:55:27;8.88;;;0.90;;
54171;SDS011;40076;52.354;4.970;2022-12-07T06:57:53;6.07;;;1.15;;
54171;SDS011;40076;52.354;4.970;2022-12-07T07:00:18;5.07;;;1.20;;
54171;SDS011;40076;52.354;4.970;2022-12-07T07:02:44;8.63;;;1.30;;
54171;SDS011;40076;52.354;4.970;2022-12-07T07:05:09;5.78;;;1.90;;
54171;SDS011;40076;52.354;4.970;2022-12-07T07:07:34;7.75;;;2.38;;
54171;SDS011;40076;52.354;4.970;2022-12-07T07:09:59;12.15;;;3.22;;
54171;SDS011;40076;52.354;4.970;2022-12-07T07:12:25;14.45;;;2.75;;
54171;SDS011;40076;52.354;4.970;2022-12-07T07:14:50;12.75;;;2.70;;
54171;SDS011;40076;52.354;4.970;2022-12-07T07:17:15;6.68;;;1.70;;
54171;SDS011;40076;52.354;4.970;2022-12-07T07:19:41;9.23;;;1.60;;
54171;SDS011;40076;52.354;4.970;2022-12-07T07:22:06;16.55;;;2.55;;
54171;SDS011;40076;52.354;4.970;2022-12-07T07:24:31;15.38;;;3.03;;
54171;SDS011;40076;52.354;4.970;2022-12-07T07:26:57;8.73;;;2.05;;
54171;SDS011;40076;52.354;4.970;2022-12-07T07:29:23;9.52;;;2.38;;
54171;SDS011;40076;52.354;4.970;2022-12-07T07:31:48;9.43;;;1.80;;
54171;SDS011;40076;52.354;4.970;2022-12-07T07:34:13;15.45;;;2.78;;
54171;SDS011;40076;52.354;4.970;2022-12-07T07:36:39;11.43;;;1.83;;
54171;SDS011;40076;52.354;4.970;2022-12-07T07:39:04;9.15;;;1.63;;
54171;SDS011;40076;52.354;4.970;2022-12-07T07:41:30;5.75;;;1.20;;
54171;SDS011;40076;52.354;4.970;2022-12-07T07:43:55;9.88;;;1.38;;
54171;SDS011;40076;52.354;4.970;2022-12-07T07:46:21;6.10;;;1.27;;
54171;SDS011;40076;52.354;4.970;2022-12-07T07:48:46;7.60;;;1.00;;
54171;SDS011;40076;52.354;4.970;2022-12-07T07:51:12;8.70;;;1.58;;
54171;SDS011;40076;52.354;4.970;2022-12-07T07:53:53;9.40;;;1.35;;
54171;SDS011;40076;52.354;4.970;2022-12-07T07:56:19;7.05;;;1.30;;
54171;SDS011;40076;52.354;4.970;2022-12-07T07:58:44;5.78;;;1.05;;
54171;SDS011;40076;52.354;4.970;2022-12-07T08:01:09;8.75;;;0.98;;
54171;SDS011;40076;52.354;4.970;2022-12-07T08:03:35;5.07;;;0.82;;
54171;SDS011;40076;52.354;4.970;2022-12-07T08:06:01;5.55;;;1.13;;
54171;SDS011;40076;52.354;4.970;2022-12-07T08:08:27;9.00;;;1.73;;
54171;SDS011;40076;52.354;4.970;2022-12-07T08:10:53;4.53;;;1.40;;
54171;SDS011;40076;52.354;4.970;2022-12-07T08:13:18;6.55;;;1.52;;
54171;SDS011;40076;52.354;4.970;2022-12-07T08:15:44;8.68;;;1.10;;
54171;SDS011;40076;52.354;4.970;2022-12-07T08:18:12;6.38;;;1.40;;
54171;SDS011;40076;52.354;4.970;2022-12-07T08:20:38;5.50;;;1.00;;
54171;SDS011;40076;52.354;4.970;2022-12-07T08:23:04;8.02;;;1.23;;
54171;SDS011;40076;52.354;4.970;2022-12-07T08:25:31;10.13;;;1.65;;
54171;SDS011;40076;52.354;4.970;2022-12-07T08:27:57;7.95;;;1.45;;
54171;SDS011;40076;52.354;4.970;2022-12-07T08:30:22;10.93;;;1.38;;
54171;SDS011;40076;52.354;4.970;2022-12-07T08:32:48;8.25;;;1.20;;
54171;SDS011;40076;52.354;4.970;2022-12-07T08:35:14;7.47;;;1.58;;
54171;SDS011;40076;52.354;4.970;2022-12-07T08:37:40;8.48;;;1.08;;
54171;SDS011;40076;52.354;4.970;2022-12-07T08:40:06;6.93;;;0.80;;
54171;SDS011;40076;52.354;4.970;2022-12-07T08:42:33;9.73;;;1.15;;
54171;SDS011;40076;52.354;4.970;2022-12-07T08:45:09;6.25;;;0.73;;
54171;SDS011;40076;52.354;4.970;2022-12-07T08:47:37;6.70;;;1.00;;
54171;SDS011;40076;52.354;4.970;2022-12-07T08:50:23;5.13;;;0.95;;
54171;SDS011;40076;52.354;4.970;2022-12-07T08:52:51;5.40;;;0.93;;
54171;SDS011;40076;52.354;4.970;2022-12-07T08:55:18;6.15;;;1.20;;
54171;SDS011;40076;52.354;4.970;2022-12-07T08:57:44;7.22;;;1.23;;
54171;SDS011;40076;52.354;4.970;2022-12-07T09:00:10;6.25;;;1.30;;
54171;SDS011;40076;52.354;4.970;2022-12-07T09:02:36;6.28;;;1.15;;
54171;SDS011;40076;52.354;4.970;2022-12-07T09:05:01;7.22;;;1.23;;
54171;SDS011;40076;52.354;4.970;2022-12-07T09:07:26;8.30;;;1.33;;
54171;SDS011;40076;52.354;4.970;2022-12-07T09:09:52;9.00;;;1.50;;
54171;SDS011;40076;52.354;4.970;2022-12-07T09:12:17;10.68;;;1.90;;
54171;SDS011;40076;52.354;4.970;2022-12-07T09:14:43;7.45;;;1.30;;
54171;SDS011;40076;52.354;4.970;2022-12-07T09:17:09;14.77;;;2.00;;
54171;SDS011;40076;52.354;4.970;2022-12-07T09:19:37;7.03;;;1.50;;
54171;SDS011;40076;52.354;4.970;2022-12-07T09:22:03;7.80;;;1.60;;
54171;SDS011;40076;52.354;4.970;2022-12-07T09:24:30;11.25;;;1.80;;
54171;SDS011;40076;52.354;4.970;2022-12-07T09:26:56;15.20;;;2.22;;
54171;SDS011;40076;52.354;4.970;2022-12-07T09:29:21;7.35;;;1.45;;
54171;SDS011;40076;52.354;4.970;2022-12-07T09:31:47;6.63;;;1.40;;
54171;SDS011;40076;52.354;4.970;2022-12-07T09:34:12;12.05;;;2.85;;
54171;SDS011;40076;52.354;4.970;2022-12-07T09:36:37;6.68;;;1.50;;
54171;SDS011;40076;52.354;4.970;2022-12-07T09:39:03;7.60;;;1.38;;
54171;SDS011;40076;52.354;4.970;2022-12-07T09:41:29;7.57;;;1.50;;
54171;SDS011;40076;52.354;4.970;2022-12-07T09:43:58;8.73;;;1.40;;
54171;SDS011;40076;52.354;4.970;2022-12-07T09:48:57;6.57;;;1.17;;
54171;SDS011;40076;52.354;4.970;2022-12-07T09:51:22;7.60;;;1.08;;
54171;SDS011;40076;52.354;4.970;2022-12-07T09:53:49;8.18;;;1.73;;
54171;SDS011;40076;52.354;4.970;2022-12-07T09:56:16;9.65;;;1.40;;
54171;SDS011;40076;52.354;4.970;2022-12-07T09:58:43;8.55;;;1.52;;
54171;SDS011;40076;52.354;4.970;2022-12-07T10:03:42;8.55;;;1.40;;
54171;SDS011;40076;52.354;4.970;2022-12-07T10:06:16;10.10;;;1.27;;
54171;SDS011;40076;52.354;4.970;2022-12-07T10:08:42;11.05;;;2.80;;
54171;SDS011;40076;52.354;4.970;2022-12-07T10:11:08;6.95;;;1.15;;
54171;SDS011;40076;52.354;4.970;2022-12-07T10:16:05;6.68;;;1.48;;
54171;SDS011;40076;52.354;4.970;2022-12-07T10:18:33;12.07;;;2.28;;
54171;SDS011;40076;52.354;4.970;2022-12-07T10:23:58;7.13;;;1.90;;
54171;SDS011;40076;52.354;4.970;2022-12-07T10:26:35;6.25;;;1.58;;
54171;SDS011;40076;52.354;4.970;2022-12-07T10:29:20;17.25;;;2.60;;
54171;SDS011;40076;52.354;4.970;2022-12-07T10:31:48;10.75;;;3.80;;
54171;SDS011;40076;52.354;4.970;2022-12-07T10:39:53;9.88;;;2.05;;
54171;SDS011;40076;52.354;4.970;2022-12-07T10:42:21;17.48;;;1.83;;
54171;SDS011;40076;52.354;4.970;2022-12-07T10:47:44;8.20;;;1.90;;
54171;SDS011;40076;52.354;4.970;2022-12-07T10:53:24;12.43;;;2.50;;
54171;SDS011;40076;52.354;4.970;2022-12-07T11:18:02;11.43;;;3.17;;
54171;SDS011;40076;52.354;4.970;2022-12-07T11:23:40;7.45;;;1.73;;
54171;SDS011;40076;52.354;4.970;2022-12-07T11:31:18;9.30;;;2.20;;
54171;SDS011;40076;52.354;4.970;2022-12-07T11:33:53;13.18;;;1.73;;
54171;SDS011;40076;52.354;4.970;2022-12-07T11:36:39;10.63;;;1.98;;
54171;SDS011;40076;52.354;4.970;2022-12-07T11:41:44;12.98;;;2.42;;
54171;SDS011;40076;52.354;4.970;2022-12-07T11:44:33;12.10;;;2.30;;
54171;SDS011;40076;52.354;4.970;2022-12-07T11:55:50;7.45;;;1.20;;
54171;SDS011;40076;52.354;4.970;2022-12-07T12:01:09;7.30;;;0.80;;
54171;SDS011;40076;52.354;4.970;2022-12-07T12:03:36;10.07;;;1.45;;
54171;SDS011;40076;52.354;4.970;2022-12-07T12:06:07;10.15;;;1.00;;
54171;SDS011;40076;52.354;4.970;2022-12-07T12:09:06;6.15;;;1.52;;
54171;SDS011;40076;52.354;4.970;2022-12-07T12:22:06;8.07;;;0.90;;
54171;SDS011;40076;52.354;4.970;2022-12-07T12:24:46;5.25;;;1.00;;
54171;SDS011;40076;52.354;4.970;2022-12-07T12:27:31;6.68;;;0.82;;
54171;SDS011;40076;52.354;4.970;2022-12-07T12:32:38;8.32;;;1.10;;
54171;SDS011;40076;52.354;4.970;2022-12-07T12:37:57;5.88;;;0.73;;
54171;SDS011;40076;52.354;4.970;2022-12-07T12:40:58;6.82;;;0.98;;
54171;SDS011;40076;52.354;4.970;2022-12-07T12:54:14;5.13;;;1.00;;
54171;SDS011;40076;52.354;4.970;2022-12-07T12:56:51;12.70;;;1.83;;
54171;SDS011;40076;52.354;4.970;2022-12-07T13:02:49;5.43;;;0.50;;
54171;SDS011;40076;52.354;4.970;2022-12-07T13:05:23;6.30;;;1.25;;
54171;SDS011;40076;52.354;4.970;2022-12-07T13:07:53;5.82;;;0.70;;
54171;SDS011;40076;52.354;4.970;2022-12-07T13:13:03;4.50;;;0.80;;
54171;SDS011;40076;52.354;4.970;2022-12-07T13:15:49;9.68;;;1.58;;
54171;SDS011;40076;52.354;4.970;2022-12-07T13:21:00;4.05;;;1.40;;
54171;SDS011;40076;52.354;4.970;2022-12-07T13:28:40;10.95;;;2.22;;
54171;SDS011;40076;52.354;4.970;2022-12-07T13:31:12;5.20;;;1.08;;
54171;SDS011;40076;52.354;4.970;2022-12-07T13:33:51;8.38;;;1.00;;
54171;SDS011;40076;52.354;4.970;2022-12-07T13:36:26;4.28;;;0.93;;
54171;SDS011;40076;52.354;4.970;2022-12-07T13:39:01;6.68;;;1.17;;
54171;SDS011;40076;52.354;4.970;2022-12-07T13:41:41;8.45;;;1.10;;
54171;SDS011;40076;52.354;4.970;2022-12-07T13:44:11;9.32;;;1.75;;
54171;SDS011;40076;52.354;4.970;2022-12-07T13:49:27;7.38;;;1.58;;
54171;SDS011;40076;52.354;4.970;2022-12-07T13:51:56;5.13;;;0.90;;
54171;SDS011;40076;52.354;4.970;2022-12-07T13:54:56;8.82;;;1.20;;
54171;SDS011;40076;52.354;4.970;2022-12-07T13:57:27;9.05;;;1.60;;
54171;SDS011;40076;52.354;4.970;2022-12-07T13:59:55;9.32;;;1.23;;
54171;SDS011;40076;52.354;4.970;2022-12-07T14:02:24;5.35;;;1.10;;
54171;SDS011;40076;52.354;4.970;2022-12-07T14:05:05;8.38;;;1.58;;
54171;SDS011;40076;52.354;4.970;2022-12-07T14:07:48;8.07;;;1.35;;
54171;SDS011;40076;52.354;4.970;2022-12-07T14:10:26;5.70;;;1.08;;
54171;SDS011;40076;52.354;4.970;2022-12-07T14:12:55;5.60;;;0.80;;
54171;SDS011;40076;52.354;4.970;2022-12-07T14:15:22;6.05;;;1.13;;
54171;SDS011;40076;52.354;4.970;2022-12-07T14:17:51;4.10;;;0.88;;
54171;SDS011;40076;52.354;4.970;2022-12-07T14:22:59;4.18;;;0.88;;
54171;SDS011;40076;52.354;4.970;2022-12-07T14:25:33;5.47;;;0.90;;
54171;SDS011;40076;52.354;4.970;2022-12-07T14:28:24;6.15;;;0.65;;
54171;SDS011;40076;52.354;4.970;2022-12-07T14:30:51;2.63;;;0.70;;
54171;SDS011;40076;52.354;4.970;2022-12-07T14:33:16;6.13;;;1.75;;
54171;SDS011;40076;52.354;4.970;2022-12-07T14:35:43;5.35;;;1.13;;
54171;SDS011;40076;52.354;4.970;2022-12-07T14:38:08;4.90;;;0.82;;
54171;SDS011;40076;52.354;4.970;2022-12-07T14:40:33;6.90;;;1.08;;
54171;SDS011;40076;52.354;4.970;2022-12-07T14:43:03;3.67;;;0.80;;
54171;SDS011;40076;52.354;4.970;2022-12-07T14:45:39;6.90;;;1.02;;
54171;SDS011;40076;52.354;4.970;2022-12-07T14:48:05;8.00;;;1.30;;
54171;SDS011;40076;52.354;4.970;2022-12-07T14:50:33;6.18;;;1.00;;
54171;SDS011;40076;52.354;4.970;2022-12-07T14:53:04;7.53;;;1.58;;
54171;SDS011;40076;52.354;4.970;2022-12-07T14:58:01;8.73;;;1.30;;
54171;SDS011;40076;52.354;4.970;2022-12-07T15:00:27;9.68;;;1.25;;
54171;SDS011;40076;52.354;4.970;2022-12-07T15:02:53;6.38;;;1.42;;
54171;SDS011;40076;52.354;4.970;2022-12-07T15:05:19;7.88;;;1.08;;
54171;SDS011;40076;52.354;4.970;2022-12-07T15:07:45;5.20;;;1.10;;
54171;SDS011;40076;52.354;4.970;2022-12-07T15:10:20;6.25;;;1.23;;
54171;SDS011;40076;52.354;4.970;2022-12-07T15:12:54;7.55;;;1.20;;
54171;SDS011;40076;52.354;4.970;2022-12-07T15:15:19;3.83;;;0.60;;
54171;SDS011;40076;52.354;4.970;2022-12-07T15:17:45;2.90;;;0.70;;
54171;SDS011;40076;52.354;4.970;2022-12-07T15:20:14;5.80;;;0.85;;
54171;SDS011;40076;52.354;4.970;2022-12-07T15:22:41;4.72;;;0.65;;
54171;SDS011;40076;52.354;4.970;2022-12-07T15:25:08;4.30;;;0.77;;
54171;SDS011;40076;52.354;4.970;2022-12-07T15:27:34;4.35;;;0.63;;
54171;SDS011;40076;52.354;4.970;2022-12-07T15:29:59;5.40;;;0.82;;
54171;SDS011;40076;52.354;4.970;2022-12-07T15:32:24;9.82;;;1.45;;
54171;SDS011;40076;52.354;4.970;2022-12-07T15:34:49;6.70;;;1.23;;
54171;SDS011;40076;52.354;4.970;2022-12-07T15:37:15;9.07;;;1.48;;
54171;SDS011;40076;52.354;4.970;2022-12-07T15:39:40;6.28;;;0.95;;
54171;SDS011;40076;52.354;4.970;2022-12-07T15:42:06;6.57;;;1.00;;
54171;SDS011;40076;52.354;4.970;2022-12-07T15:44:31;6.85;;;1.10;;
54171;SDS011;40076;52.354;4.970;2022-12-07T15:47:15;7.97;;;1.10;;
54171;SDS011;40076;52.354;4.970;2022-12-07T15:49:40;7.60;;;1.10;;
54171;SDS011;40076;52.354;4.970;2022-12-07T15:52:06;11.18;;;1.98;;
54171;SDS011;40076;52.354;4.970;2022-12-07T15:54:31;5.00;;;1.27;;
54171;SDS011;40076;52.354;4.970;2022-12-07T15:56:57;5.32;;;1.20;;
54171;SDS011;40076;52.354;4.970;2022-12-07T15:59:22;6.90;;;1.02;;
54171;SDS011;40076;52.354;4.970;2022-12-07T16:01:48;10.07;;;2.17;;
54171;SDS011;40076;52.354;4.970;2022-12-07T16:04:13;10.20;;;1.58;;
54171;SDS011;40076;52.354;4.970;2022-12-07T16:06:38;6.50;;;1.02;;
54171;SDS011;40076;52.354;4.970;2022-12-07T16:09:04;8.68;;;1.48;;
54171;SDS011;40076;52.354;4.970;2022-12-07T16:11:29;9.00;;;1.40;;
54171;SDS011;40076;52.354;4.970;2022-12-07T16:13:55;9.00;;;1.40;;
54171;SDS011;40076;52.354;4.970;2022-12-07T16:16:20;7.13;;;2.40;;
54171;SDS011;40076;52.354;4.970;2022-12-07T16:18:49;6.13;;;1.65;;
54171;SDS011;40076;52.354;4.970;2022-12-07T16:21:15;8.27;;;1.85;;
54171;SDS011;40076;52.354;4.970;2022-12-07T16:23:42;8.75;;;1.90;;
54171;SDS011;40076;52.354;4.970;2022-12-07T16:26:08;8.20;;;2.60;;
54171;SDS011;40076;52.354;4.970;2022-12-07T16:28:36;6.65;;;1.40;;
54171;SDS011;40076;52.354;4.970;2022-12-07T16:31:06;7.78;;;2.03;;
54171;SDS011;40076;52.354;4.970;2022-12-07T16:33:34;14.25;;;3.30;;
54171;SDS011;40076;52.354;4.970;2022-12-07T16:36:00;10.18;;;4.22;;
54171;SDS011;40076;52.354;4.970;2022-12-07T16:38:26;10.88;;;5.97;;
54171;SDS011;40076;52.354;4.970;2022-12-07T16:40:52;14.02;;;6.05;;
54171;SDS011;40076;52.354;4.970;2022-12-07T16:43:18;10.90;;;5.40;;
54171;SDS011;40076;52.354;4.970;2022-12-07T16:45:43;10.07;;;3.58;;
54171;SDS011;40076;52.354;4.970;2022-12-07T16:48:10;11.55;;;2.85;;
54171;SDS011;40076;52.354;4.970;2022-12-07T16:50:38;9.48;;;2.38;;
54171;SDS011;40076;52.354;4.970;2022-12-07T16:53:05;6.10;;;1.52;;
54171;SDS011;40076;52.354;4.970;2022-12-07T16:55:31;6.45;;;1.00;;
54171;SDS011;40076;52.354;4.970;2022-12-07T16:57:58;6.72;;;1.08;;
54171;SDS011;40076;52.354;4.970;2022-12-07T17:00:23;15.65;;;2.30;;
54171;SDS011;40076;52.354;4.970;2022-12-07T17:02:48;13.70;;;2.30;;
54171;SDS011;40076;52.354;4.970;2022-12-07T17:05:13;6.53;;;1.48;;
54171;SDS011;40076;52.354;4.970;2022-12-07T17:07:39;8.15;;;1.10;;
54171;SDS011;40076;52.354;4.970;2022-12-07T17:10:04;3.42;;;0.68;;
54171;SDS011;40076;52.354;4.970;2022-12-07T17:12:30;6.30;;;0.80;;
54171;SDS011;40076;52.354;4.970;2022-12-07T17:14:55;6.40;;;1.20;;
54171;SDS011;40076;52.354;4.970;2022-12-07T17:17:39;6.80;;;1.50;;
54171;SDS011;40076;52.354;4.970;2022-12-07T17:20:05;5.53;;;0.82;;